sensor_id;sensor_type;location;lat;lon;timestamp;pressure;altitude;pressure_sealevel;temperature;humidity
47082;BME280;33066;49.296;14.470;2022-12-29T00:00:45;96825.47;;;9.54;35.17
47082;BME280;33066;49.296;14.470;2022-12-29T00:03:10;96815.61;;;9.79;35.12
47082;BME280;33066;49.296;14.470;2022-12-29T00:05:36;96814.59;;;9.61;34.94
47082;BME280;33066;49.296;14.470;2022-12-29T00:08:01;96810.16;;;9.68;34.84
47082;BME280;33066;49.296;14.470;2022-12-29T00:10:27;96814.90;;;9.88;34.86
47082;BME280;33066;49.296;14.470;2022-12-29T00:12:52;96817.98;;;9.51;34.94
47082;BME280;33066;49.296;14.470;2022-12-29T00:15:17;96816.56;;;9.37;35.00
47082;BME280;33066;49.296;14.470;2022-12-29T00:17:43;96820.22;;;9.37;35.01
47082;BME280;33066;49.296;14.470;2022-12-29T00:20:09;96821.84;;;9.92;34.92
47082;BME280;33066;49.296;14.470;2022-12-29T00:22:34;96813.44;;;9.76;34.72
47082;BME280;33066;49.296;14.470;2022-12-29T00:25:00;96812.11;;;9.70;34.68
47082;BME280;33066;49.296;14.470;2022-12-29T00:27:26;96810.40;;;9.81;34.66
47082;BME280;33066;49.296;14.470;2022-12-29T00:29:51;96807.47;;;9.35;34.61
47082;BME280;33066;49.296;14.470;2022-12-29T00:32:16;96808.36;;;9.52;34.48
47082;BME280;33066;49.296;14.470;2022-12-29T00:34:42;96806.68;;;9.81;34.54
47082;BME280;33066;49.296;14.470;2022-12-29T00:37:07;96806.17;;;9.55;34.51
47082;BME280;33066;49.296;14.470;2022-12-29T00:39:32;96806.02;;;9.55;34.50
47082;BME280;33066;49.296;14.470;2022-12-29T00:42:03;96806.13;;;9.82;34.53
47082;BME280;33066;49.296;14.470;2022-12-29T00:44:24;96803.68;;;9.77;34.56
47082;BME280;33066;49.296;14.470;2022-12-29T00:46:49;96800.03;;;9.58;34.48
47082;BME280;33066;49.296;14.470;2022-12-29T00:49:15;96792.71;;;9.64;34.41
47082;BME280;33066;49.296;14.470;2022-12-29T00:51:40;96789.23;;;9.56;34.42
47082;BME280;33066;49.296;14.470;2022-12-29T00:54:05;96787.38;;;9.49;34.45
47082;BME280;33066;49.296;14.470;2022-12-29T00:56:30;96785.09;;;9.36;34.39
47082;BME280;33066;49.296;14.470;2022-12-29T00:59:00;96784.66;;;9.93;34.23
47082;BME280;33066;49.296;14.470;2022-12-29T01:01:21;96781.58;;;9.71;34.16
47082;BME280;33066;49.296;14.470;2022-12-29T01:03:47;96782.80;;;9.68;34.12
47082;BME280;33066;49.296;14.470;2022-12-29T01:06:12;96784.36;;;9.75;34.03
47082;BME280;33066;49.296;14.470;2022-12-29T01:08:37;96786.38;;;9.84;33.83
47082;BME280;33066;49.296;14.470;2022-12-29T01:11:05;96783.53;;;9.83;33.75
47082;BME280;33066;49.296;14.470;2022-12-29T01:13:28;96781.89;;;9.86;33.83
47082;BME280;33066;49.296;14.470;2022-12-29T01:15:54;96781.08;;;9.87;33.65
47082;BME280;33066;49.296;14.470;2022-12-29T01:18:20;96787.17;;;9.82;33.72
47082;BME280;33066;49.296;14.470;2022-12-29T01:20:44;96783.11;;;9.75;33.58
47082;BME280;33066;49.296;14.470;2022-12-29T01:23:09;96783.21;;;9.75;33.52
47082;BME280;33066;49.296;14.470;2022-12-29T01:25:35;96779.22;;;9.73;33.61
47082;BME280;33066;49.296;14.470;2022-12-29T01:28:00;96781.95;;;9.75;33.60
47082;BME280;33066;49.296;14.470;2022-12-29T01:30:25;96783.52;;;9.74;33.55
47082;BME280;33066;49.296;14.470;2022-12-29T01:32:51;96780.53;;;9.74;33.81
47082;BME280;33066;49.296;14.470;2022-12-29T01:35:16;96777.48;;;10.01;33.73
47082;BME280;33066;49.296;14.470;2022-12-29T01:37:41;96779.60;;;9.63;34.32
47082;BME280;33066;49.296;14.470;2022-12-29T01:40:08;96777.65;;;9.72;34.75
47082;BME280;33066;49.296;14.470;2022-12-29T01:42:33;96771.16;;;9.45;34.90
47082;BME280;33066;49.296;14.470;2022-12-29T01:45:00;96769.08;;;9.39;35.09
47082;BME280;33066;49.296;14.470;2022-12-29T01:47:30;96766.82;;;9.63;34.88
47082;BME280;33066;49.296;14.470;2022-12-29T01:49:57;96764.13;;;9.65;34.74
47082;BME280;33066;49.296;14.470;2022-12-29T01:52:13;96764.37;;;9.34;34.88
47082;BME280;33066;49.296;14.470;2022-12-29T01:54:42;96766.32;;;9.28;34.84
47082;BME280;33066;49.296;14.470;2022-12-29T01:57:07;96766.32;;;9.53;34.76
47082;BME280;33066;49.296;14.470;2022-12-29T01:59:32;96761.62;;;9.26;34.62
47082;BME280;33066;49.296;14.470;2022-12-29T02:01:55;96755.17;;;9.32;34.34
47082;BME280;33066;49.296;14.470;2022-12-29T02:04:22;96753.57;;;9.63;34.23
47082;BME280;33066;49.296;14.470;2022-12-29T02:06:48;96752.71;;;9.37;33.38
47082;BME280;33066;49.296;14.470;2022-12-29T02:09:11;96750.81;;;9.53;33.06
47082;BME280;33066;49.296;14.470;2022-12-29T02:11:38;96755.12;;;9.88;32.89
47082;BME280;33066;49.296;14.470;2022-12-29T02:14:08;96754.92;;;9.72;32.24
47082;BME280;33066;49.296;14.470;2022-12-29T02:16:37;96746.75;;;10.12;32.33
47082;BME280;33066;49.296;14.470;2022-12-29T02:19:03;96750.24;;;9.83;32.21
47082;BME280;33066;49.296;14.470;2022-12-29T02:21:33;96746.03;;;10.22;32.20
47082;BME280;33066;49.296;14.470;2022-12-29T02:24:07;96751.06;;;10.09;31.98
47082;BME280;33066;49.296;14.470;2022-12-29T02:26:24;96746.34;;;10.30;31.67
47082;BME280;33066;49.296;14.470;2022-12-29T02:28:45;96740.17;;;10.35;31.56
47082;BME280;33066;49.296;14.470;2022-12-29T02:31:07;96738.64;;;10.09;31.82
47082;BME280;33066;49.296;14.470;2022-12-29T02:33:37;96736.53;;;9.82;32.23
47082;BME280;33066;49.296;14.470;2022-12-29T02:35:56;96733.41;;;10.28;31.81
47082;BME280;33066;49.296;14.470;2022-12-29T02:38:28;96738.86;;;9.95;31.63
47082;BME280;33066;49.296;14.470;2022-12-29T02:40:48;96735.02;;;10.21;31.43
47082;BME280;33066;49.296;14.470;2022-12-29T02:43:17;96737.39;;;9.98;31.30
47082;BME280;33066;49.296;14.470;2022-12-29T02:45:36;96730.01;;;10.23;31.28
47082;BME280;33066;49.296;14.470;2022-12-29T02:48:03;96730.90;;;10.00;31.12
47082;BME280;33066;49.296;14.470;2022-12-29T02:50:26;96727.60;;;10.11;31.51
47082;BME280;33066;49.296;14.470;2022-12-29T02:52:50;96728.34;;;10.09;31.20
47082;BME280;33066;49.296;14.470;2022-12-29T02:55:14;96727.88;;;10.30;31.65
47082;BME280;33066;49.296;14.470;2022-12-29T02:57:39;96732.02;;;10.22;31.46
47082;BME280;33066;49.296;14.470;2022-12-29T03:00:07;96728.92;;;10.31;31.27
47082;BME280;33066;49.296;14.470;2022-12-29T03:02:44;96726.47;;;10.11;32.40
47082;BME280;33066;49.296;14.470;2022-12-29T03:05:14;96731.94;;;10.27;32.33
47082;BME280;33066;49.296;14.470;2022-12-29T03:07:26;96732.32;;;9.71;31.72
47082;BME280;33066;49.296;14.470;2022-12-29T03:09:52;96732.22;;;10.27;31.46
47082;BME280;33066;49.296;14.470;2022-12-29T03:12:19;96729.20;;;10.32;31.24
47082;BME280;33066;49.296;14.470;2022-12-29T03:14:45;96732.67;;;10.22;31.29
47082;BME280;33066;49.296;14.470;2022-12-29T03:17:07;96729.74;;;10.46;31.08
47082;BME280;33066;49.296;14.470;2022-12-29T03:19:30;96728.35;;;10.15;31.10
47082;BME280;33066;49.296;14.470;2022-12-29T03:21:56;96723.34;;;10.43;31.11
47082;BME280;33066;49.296;14.470;2022-12-29T03:24:22;96719.09;;;10.25;30.90
47082;BME280;33066;49.296;14.470;2022-12-29T03:26:45;96719.21;;;10.41;31.16
47082;BME280;33066;49.296;14.470;2022-12-29T03:29:10;96721.94;;;10.44;31.02
47082;BME280;33066;49.296;14.470;2022-12-29T03:31:36;96721.50;;;10.32;31.79
47082;BME280;33066;49.296;14.470;2022-12-29T03:34:01;96725.44;;;10.00;32.17
47082;BME280;33066;49.296;14.470;2022-12-29T03:36:30;96719.95;;;10.31;32.69
47082;BME280;33066;49.296;14.470;2022-12-29T03:38:57;96714.82;;;10.23;33.19
47082;BME280;33066;49.296;14.470;2022-12-29T03:41:22;96718.66;;;10.06;33.43
47082;BME280;33066;49.296;14.470;2022-12-29T03:43:42;96725.28;;;9.84;32.96
47082;BME280;33066;49.296;14.470;2022-12-29T03:46:07;96725.55;;;10.03;33.06
47082;BME280;33066;49.296;14.470;2022-12-29T03:48:32;96727.47;;;10.03;33.22
47082;BME280;33066;49.296;14.470;2022-12-29T03:50:58;96728.97;;;9.87;33.26
47082;BME280;33066;49.296;14.470;2022-12-29T03:53:23;96731.35;;;9.85;32.82
47082;BME280;33066;49.296;14.470;2022-12-29T03:55:48;96728.00;;;9.86;32.61
47082;BME280;33066;49.296;14.470;2022-12-29T03:58:14;96728.37;;;9.88;32.59
47082;BME280;33066;49.296;14.470;2022-12-29T04:00:39;96722.16;;;10.15;32.42
47082;BME280;33066;49.296;14.470;2022-12-29T04:03:05;96723.02;;;10.12;32.40
47082;BME280;33066;49.296;14.470;2022-12-29T04:05:30;96729.46;;;9.93;32.03
47082;BME280;33066;49.296;14.470;2022-12-29T04:07:55;96726.19;;;10.11;31.64
47082;BME280;33066;49.296;14.470;2022-12-29T04:13:00;96726.05;;;10.24;32.79
47082;BME280;33066;49.296;14.470;2022-12-29T04:15:25;96729.77;;;9.77;33.60
47082;BME280;33066;49.296;14.470;2022-12-29T04:17:50;96728.92;;;9.85;33.61
47082;BME280;33066;49.296;14.470;2022-12-29T04:20:16;96725.97;;;10.17;33.96
47082;BME280;33066;49.296;14.470;2022-12-29T04:22:41;96726.46;;;9.77;34.34
47082;BME280;33066;49.296;14.470;2022-12-29T04:25:07;96726.30;;;9.78;34.34
47082;BME280;33066;49.296;14.470;2022-12-29T04:27:32;96726.20;;;9.55;34.03
47082;BME280;33066;49.296;14.470;2022-12-29T04:29:57;96728.70;;;9.54;34.05
47082;BME280;33066;49.296;14.470;2022-12-29T04:32:22;96728.12;;;9.71;34.16
47082;BME280;33066;49.296;14.470;2022-12-29T04:34:48;96727.70;;;9.82;33.85
47082;BME280;33066;49.296;14.470;2022-12-29T04:37:13;96721.86;;;10.01;34.03
47082;BME280;33066;49.296;14.470;2022-12-29T04:39:39;96721.50;;;9.78;34.05
47082;BME280;33066;49.296;14.470;2022-12-29T04:42:04;96724.59;;;10.06;33.85
47082;BME280;33066;49.296;14.470;2022-12-29T04:44:29;96727.94;;;9.80;33.58
47082;BME280;33066;49.296;14.470;2022-12-29T04:46:54;96727.59;;;9.92;33.35
47082;BME280;33066;49.296;14.470;2022-12-29T04:49:20;96727.14;;;9.99;33.46
47082;BME280;33066;49.296;14.470;2022-12-29T04:51:45;96722.05;;;9.96;33.50
47082;BME280;33066;49.296;14.470;2022-12-29T04:54:10;96717.85;;;9.67;33.55
47082;BME280;33066;49.296;14.470;2022-12-29T04:56:36;96713.88;;;9.84;33.66
47082;BME280;33066;49.296;14.470;2022-12-29T04:59:01;96711.92;;;9.81;33.81
47082;BME280;33066;49.296;14.470;2022-12-29T05:01:27;96707.77;;;9.87;33.58
47082;BME280;33066;49.296;14.470;2022-12-29T05:03:52;96701.94;;;9.94;33.98
47082;BME280;33066;49.296;14.470;2022-12-29T05:06:18;96700.48;;;9.99;34.45
47082;BME280;33066;49.296;14.470;2022-12-29T05:08:43;96706.21;;;10.04;34.36
47082;BME280;33066;49.296;14.470;2022-12-29T05:11:08;96706.80;;;10.15;34.03
47082;BME280;33066;49.296;14.470;2022-12-29T05:13:34;96709.79;;;10.21;33.57
47082;BME280;33066;49.296;14.470;2022-12-29T05:15:59;96708.14;;;9.94;32.65
47082;BME280;33066;49.296;14.470;2022-12-29T05:18:24;96711.62;;;10.30;32.48
47082;BME280;33066;49.296;14.470;2022-12-29T05:20:50;96707.65;;;10.12;32.17
47082;BME280;33066;49.296;14.470;2022-12-29T05:23:15;96703.20;;;10.15;31.96
47082;BME280;33066;49.296;14.470;2022-12-29T05:25:41;96703.60;;;10.00;31.95
47082;BME280;33066;49.296;14.470;2022-12-29T05:28:06;96699.17;;;10.26;32.13
47082;BME280;33066;49.296;14.470;2022-12-29T05:30:31;96699.06;;;10.17;31.88
47082;BME280;33066;49.296;14.470;2022-12-29T05:32:57;96699.93;;;10.14;32.03
47082;BME280;33066;49.296;14.470;2022-12-29T05:35:23;96698.22;;;10.19;31.93
47082;BME280;33066;49.296;14.470;2022-12-29T05:37:48;96700.74;;;10.16;32.00
47082;BME280;33066;49.296;14.470;2022-12-29T05:40:13;96698.45;;;10.06;31.96
47082;BME280;33066;49.296;14.470;2022-12-29T05:42:39;96697.21;;;10.24;31.74
47082;BME280;33066;49.296;14.470;2022-12-29T05:45:05;96693.99;;;10.24;32.10
47082;BME280;33066;49.296;14.470;2022-12-29T05:47:29;96694.10;;;10.52;32.16
47082;BME280;33066;49.296;14.470;2022-12-29T05:49:54;96691.15;;;10.56;32.26
47082;BME280;33066;49.296;14.470;2022-12-29T05:52:20;96690.30;;;10.57;32.07
47082;BME280;33066;49.296;14.470;2022-12-29T05:54:45;96696.53;;;10.43;31.77
47082;BME280;33066;49.296;14.470;2022-12-29T05:57:11;96695.62;;;10.39;31.36
47082;BME280;33066;49.296;14.470;2022-12-29T05:59:36;96697.23;;;10.39;31.27
47082;BME280;33066;49.296;14.470;2022-12-29T06:02:02;96697.20;;;10.45;31.30
47082;BME280;33066;49.296;14.470;2022-12-29T06:04:27;96690.63;;;10.51;31.25
47082;BME280;33066;49.296;14.470;2022-12-29T06:06:52;96687.38;;;10.59;31.30
47082;BME280;33066;49.296;14.470;2022-12-29T06:09:17;96685.46;;;10.62;31.24
47082;BME280;33066;49.296;14.470;2022-12-29T06:11:43;96684.26;;;10.22;31.34
47082;BME280;33066;49.296;14.470;2022-12-29T06:14:07;96684.27;;;11.06;30.98
47082;BME280;33066;49.296;14.470;2022-12-29T06:16:32;96684.53;;;11.03;30.94
47082;BME280;33066;49.296;14.470;2022-12-29T06:18:58;96688.33;;;11.00;31.03
47082;BME280;33066;49.296;14.470;2022-12-29T06:21:23;96692.21;;;11.02;31.15
47082;BME280;33066;49.296;14.470;2022-12-29T06:23:49;96688.95;;;10.99;31.06
47082;BME280;33066;49.296;14.470;2022-12-29T06:26:14;96685.32;;;10.80;31.09
47082;BME280;33066;49.296;14.470;2022-12-29T06:28:40;96686.81;;;11.01;31.30
47082;BME280;33066;49.296;14.470;2022-12-29T06:31:05;96683.39;;;10.97;31.33
47082;BME280;33066;49.296;14.470;2022-12-29T06:33:30;96681.24;;;10.89;31.33
47082;BME280;33066;49.296;14.470;2022-12-29T06:35:56;96673.71;;;10.82;31.33
47082;BME280;33066;49.296;14.470;2022-12-29T06:38:21;96676.46;;;10.88;31.43
47082;BME280;33066;49.296;14.470;2022-12-29T06:40:46;96676.13;;;10.89;31.23
47082;BME280;33066;49.296;14.470;2022-12-29T06:43:12;96677.10;;;10.96;31.17
47082;BME280;33066;49.296;14.470;2022-12-29T06:45:38;96674.45;;;10.89;31.21
47082;BME280;33066;49.296;14.470;2022-12-29T06:48:03;96673.58;;;11.02;31.15
47082;BME280;33066;49.296;14.470;2022-12-29T06:50:28;96669.13;;;11.25;31.08
47082;BME280;33066;49.296;14.470;2022-12-29T06:52:53;96672.53;;;10.87;31.18
47082;BME280;33066;49.296;14.470;2022-12-29T06:55:19;96673.96;;;11.19;31.22
47082;BME280;33066;49.296;14.470;2022-12-29T06:57:44;96672.92;;;11.31;31.19
47082;BME280;33066;49.296;14.470;2022-12-29T07:00:10;96671.29;;;11.34;31.26
47082;BME280;33066;49.296;14.470;2022-12-29T07:02:35;96669.89;;;11.38;31.45
47082;BME280;33066;49.296;14.470;2022-12-29T07:05:00;96670.29;;;11.41;32.03
47082;BME280;33066;49.296;14.470;2022-12-29T07:07:26;96666.16;;;11.36;32.11
47082;BME280;33066;49.296;14.470;2022-12-29T07:09:51;96667.54;;;11.15;32.18
47082;BME280;33066;49.296;14.470;2022-12-29T07:12:16;96667.40;;;11.41;31.75
47082;BME280;33066;49.296;14.470;2022-12-29T07:14:42;96668.17;;;11.45;31.60
47082;BME280;33066;49.296;14.470;2022-12-29T07:17:07;96671.04;;;11.12;31.50
47082;BME280;33066;49.296;14.470;2022-12-29T07:19:33;96674.56;;;11.49;31.48
47082;BME280;33066;49.296;14.470;2022-12-29T07:21:58;96675.19;;;11.41;31.27
47082;BME280;33066;49.296;14.470;2022-12-29T07:24:24;96676.01;;;11.41;31.27
47082;BME280;33066;49.296;14.470;2022-12-29T07:26:49;96674.23;;;11.29;31.30
47082;BME280;33066;49.296;14.470;2022-12-29T07:29:14;96678.31;;;11.27;31.34
47082;BME280;33066;49.296;14.470;2022-12-29T07:31:40;96679.03;;;11.03;31.43
47082;BME280;33066;49.296;14.470;2022-12-29T07:34:07;96677.65;;;11.32;31.55
47082;BME280;33066;49.296;14.470;2022-12-29T07:36:31;96674.77;;;11.28;31.51
47082;BME280;33066;49.296;14.470;2022-12-29T07:38:56;96677.91;;;11.13;31.48
47082;BME280;33066;49.296;14.470;2022-12-29T07:41:21;96681.30;;;11.27;31.51
47082;BME280;33066;49.296;14.470;2022-12-29T07:43:47;96680.23;;;11.34;31.56
47082;BME280;33066;49.296;14.470;2022-12-29T07:46:12;96684.32;;;11.31;31.49
47082;BME280;33066;49.296;14.470;2022-12-29T07:48:37;96685.16;;;11.36;31.43
47082;BME280;33066;49.296;14.470;2022-12-29T07:51:03;96689.46;;;11.35;31.37
47082;BME280;33066;49.296;14.470;2022-12-29T07:53:28;96693.16;;;11.36;31.26
47082;BME280;33066;49.296;14.470;2022-12-29T07:55:53;96697.14;;;11.47;31.27
47082;BME280;33066;49.296;14.470;2022-12-29T07:58:18;96700.27;;;11.32;31.31
47082;BME280;33066;49.296;14.470;2022-12-29T08:00:44;96697.22;;;11.62;31.22
47082;BME280;33066;49.296;14.470;2022-12-29T08:03:09;96700.34;;;11.81;31.17
47082;BME280;33066;49.296;14.470;2022-12-29T08:05:35;96698.62;;;11.94;30.97
47082;BME280;33066;49.296;14.470;2022-12-29T08:08:00;96699.79;;;12.36;30.67
47082;BME280;33066;49.296;14.470;2022-12-29T08:10:25;96704.24;;;12.46;30.54
47082;BME280;33066;49.296;14.470;2022-12-29T08:12:51;96707.48;;;12.37;30.56
47082;BME280;33066;49.296;14.470;2022-12-29T08:15:16;96707.99;;;12.54;30.75
47082;BME280;33066;49.296;14.470;2022-12-29T08:17:41;96707.24;;;12.29;30.71
47082;BME280;33066;49.296;14.470;2022-12-29T08:20:08;96711.46;;;12.64;30.47
47082;BME280;33066;49.296;14.470;2022-12-29T08:22:32;96709.82;;;12.79;30.50
47082;BME280;33066;49.296;14.470;2022-12-29T08:24:57;96709.78;;;12.46;30.38
47082;BME280;33066;49.296;14.470;2022-12-29T08:27:23;96713.26;;;12.62;30.42
47082;BME280;33066;49.296;14.470;2022-12-29T08:29:48;96723.21;;;12.61;30.32
47082;BME280;33066;49.296;14.470;2022-12-29T08:32:13;96723.55;;;12.61;30.58
47082;BME280;33066;49.296;14.470;2022-12-29T08:34:38;96724.77;;;12.56;30.54
47082;BME280;33066;49.296;14.470;2022-12-29T08:37:04;96722.95;;;12.62;30.68
47082;BME280;33066;49.296;14.470;2022-12-29T08:39:29;96717.92;;;12.72;30.66
47082;BME280;33066;49.296;14.470;2022-12-29T08:41:54;96717.49;;;12.69;30.58
47082;BME280;33066;49.296;14.470;2022-12-29T08:44:19;96709.36;;;12.96;30.68
47082;BME280;33066;49.296;14.470;2022-12-29T08:46:45;96700.29;;;13.15;30.69
47082;BME280;33066;49.296;14.470;2022-12-29T08:49:10;96700.34;;;12.90;30.75
47082;BME280;33066;49.296;14.470;2022-12-29T08:51:36;96694.32;;;12.84;31.14
47082;BME280;33066;49.296;14.470;2022-12-29T08:54:01;96684.25;;;13.01;30.99
47082;BME280;33066;49.296;14.470;2022-12-29T08:56:27;96683.05;;;13.18;30.84
47082;BME280;33066;49.296;14.470;2022-12-29T08:58:53;96690.68;;;13.19;30.54
47082;BME280;33066;49.296;14.470;2022-12-29T09:01:17;96681.71;;;13.23;30.63
47082;BME280;33066;49.296;14.470;2022-12-29T09:03:42;96683.40;;;13.13;30.56
47082;BME280;33066;49.296;14.470;2022-12-29T09:06:08;96685.68;;;13.50;30.61
47082;BME280;33066;49.296;14.470;2022-12-29T09:08:33;96681.97;;;13.64;30.71
47082;BME280;33066;49.296;14.470;2022-12-29T09:11:06;96678.12;;;13.72;30.59
47082;BME280;33066;49.296;14.470;2022-12-29T09:13:24;96675.00;;;13.54;30.62
47082;BME280;33066;49.296;14.470;2022-12-29T09:15:57;96676.70;;;13.95;30.65
47082;BME280;33066;49.296;14.470;2022-12-29T09:18:14;96673.84;;;13.75;30.66
47082;BME280;33066;49.296;14.470;2022-12-29T09:20:40;96674.36;;;13.80;30.70
47082;BME280;33066;49.296;14.470;2022-12-29T09:23:05;96676.07;;;13.82;30.62
47082;BME280;33066;49.296;14.470;2022-12-29T09:25:31;96675.53;;;14.15;30.59
47082;BME280;33066;49.296;14.470;2022-12-29T09:27:57;96674.42;;;14.15;30.47
47082;BME280;33066;49.296;14.470;2022-12-29T09:30:23;96676.53;;;14.35;30.31
47082;BME280;33066;49.296;14.470;2022-12-29T09:32:47;96674.26;;;14.22;30.32
47082;BME280;33066;49.296;14.470;2022-12-29T09:35:13;96674.45;;;14.23;30.64
47082;BME280;33066;49.296;14.470;2022-12-29T09:37:38;96673.57;;;14.46;31.10
47082;BME280;33066;49.296;14.470;2022-12-29T09:40:04;96672.10;;;14.37;31.25
47082;BME280;33066;49.296;14.470;2022-12-29T09:42:34;96667.87;;;14.44;31.44
47082;BME280;33066;49.296;14.470;2022-12-29T09:45:04;96662.26;;;14.44;31.29
47082;BME280;33066;49.296;14.470;2022-12-29T09:47:21;96660.40;;;14.44;31.11
47082;BME280;33066;49.296;14.470;2022-12-29T09:49:48;96661.90;;;14.51;30.99
47082;BME280;33066;49.296;14.470;2022-12-29T09:52:14;96661.94;;;14.28;30.94
47082;BME280;33066;49.296;14.470;2022-12-29T09:54:46;96658.34;;;14.66;30.90
47082;BME280;33066;49.296;14.470;2022-12-29T09:57:01;96653.86;;;14.62;30.78
47082;BME280;33066;49.296;14.470;2022-12-29T09:59:35;96654.14;;;14.69;30.74
47082;BME280;33066;49.296;14.470;2022-12-29T10:01:54;96648.04;;;14.90;30.63
47082;BME280;33066;49.296;14.470;2022-12-29T10:04:16;96647.35;;;15.22;29.82
47082;BME280;33066;49.296;14.470;2022-12-29T10:06:46;96645.31;;;15.09;29.82
47082;BME280;33066;49.296;14.470;2022-12-29T10:09:13;96641.78;;;15.18;30.13
47082;BME280;33066;49.296;14.470;2022-12-29T10:11:46;96639.77;;;15.00;29.86
47082;BME280;33066;49.296;14.470;2022-12-29T10:14:12;96634.48;;;14.77;30.28
47082;BME280;33066;49.296;14.470;2022-12-29T10:16:29;96627.76;;;15.31;29.74
47082;BME280;33066;49.296;14.470;2022-12-29T10:19:06;96632.71;;;15.27;29.31
47082;BME280;33066;49.296;14.470;2022-12-29T10:21:22;96641.53;;;15.21;29.08
47082;BME280;33066;49.296;14.470;2022-12-29T10:23:43;96645.45;;;15.14;28.52
47082;BME280;33066;49.296;14.470;2022-12-29T10:26:11;96646.84;;;14.81;28.09
47082;BME280;33066;49.296;14.470;2022-12-29T10:28:37;96647.90;;;15.21;27.95
47082;BME280;33066;49.296;14.470;2022-12-29T10:30:56;96645.54;;;14.71;27.57
47082;BME280;33066;49.296;14.470;2022-12-29T10:33:26;96642.57;;;14.85;27.34
47082;BME280;33066;49.296;14.470;2022-12-29T10:35:48;96640.88;;;14.71;27.61
47082;BME280;33066;49.296;14.470;2022-12-29T10:38:18;96640.10;;;14.44;27.60
47082;BME280;33066;49.296;14.470;2022-12-29T10:40:45;96637.56;;;14.30;27.62
47082;BME280;33066;49.296;14.470;2022-12-29T10:43:16;96641.58;;;14.46;27.85
47082;BME280;33066;49.296;14.470;2022-12-29T10:45:31;96640.86;;;14.67;27.52
47082;BME280;33066;49.296;14.470;2022-12-29T10:47:59;96640.39;;;14.83;27.49
47082;BME280;33066;49.296;14.470;2022-12-29T10:50:22;96634.78;;;15.12;27.09
47082;BME280;33066;49.296;14.470;2022-12-29T10:52:48;96638.59;;;15.36;27.20
47082;BME280;33066;49.296;14.470;2022-12-29T10:55:15;96635.74;;;15.32;27.00
47082;BME280;33066;49.296;14.470;2022-12-29T10:57:39;96638.09;;;15.43;27.03
47082;BME280;33066;49.296;14.470;2022-12-29T11:00:10;96633.76;;;15.32;27.12
47082;BME280;33066;49.296;14.470;2022-12-29T11:02:41;96633.49;;;15.46;26.94
47082;BME280;33066;49.296;14.470;2022-12-29T11:04:57;96626.02;;;15.64;27.01
47082;BME280;33066;49.296;14.470;2022-12-29T11:07:20;96632.66;;;15.81;26.99
47082;BME280;33066;49.296;14.470;2022-12-29T11:09:46;96632.69;;;15.91;26.92
47082;BME280;33066;49.296;14.470;2022-12-29T11:12:21;96627.83;;;16.15;26.76
47082;BME280;33066;49.296;14.470;2022-12-29T11:14:35;96623.93;;;16.28;26.39
47082;BME280;33066;49.296;14.470;2022-12-29T11:17:03;96615.61;;;16.50;26.44
47082;BME280;33066;49.296;14.470;2022-12-29T11:19:28;96610.25;;;16.28;26.37
47082;BME280;33066;49.296;14.470;2022-12-29T11:21:52;96603.92;;;16.59;26.28
47082;BME280;33066;49.296;14.470;2022-12-29T11:24:21;96599.89;;;16.44;26.27
47082;BME280;33066;49.296;14.470;2022-12-29T11:26:44;96599.47;;;16.56;26.59
47082;BME280;33066;49.296;14.470;2022-12-29T11:29:20;96595.30;;;15.92;26.75
47082;BME280;33066;49.296;14.470;2022-12-29T11:31:40;96595.21;;;16.24;26.72
47082;BME280;33066;49.296;14.470;2022-12-29T11:33:58;96598.99;;;16.40;26.96
47082;BME280;33066;49.296;14.470;2022-12-29T11:36:24;96589.85;;;16.36;26.93
47082;BME280;33066;49.296;14.470;2022-12-29T11:38:50;96597.06;;;16.15;27.02
47082;BME280;33066;49.296;14.470;2022-12-29T11:41:20;96593.40;;;16.04;26.84
47082;BME280;33066;49.296;14.470;2022-12-29T11:43:43;96594.06;;;15.92;26.78
47082;BME280;33066;49.296;14.470;2022-12-29T11:46:05;96586.32;;;16.70;26.86
47082;BME280;33066;49.296;14.470;2022-12-29T11:48:32;96582.26;;;16.88;26.80
47082;BME280;33066;49.296;14.470;2022-12-29T11:50:57;96582.36;;;16.82;26.65
47082;BME280;33066;49.296;14.470;2022-12-29T11:53:23;96583.51;;;16.74;26.62
47082;BME280;33066;49.296;14.470;2022-12-29T11:55:52;96590.72;;;16.37;26.53
47082;BME280;33066;49.296;14.470;2022-12-29T11:58:13;96580.35;;;16.27;26.82
47082;BME280;33066;49.296;14.470;2022-12-29T12:00:38;96584.26;;;16.10;27.13
47082;BME280;33066;49.296;14.470;2022-12-29T12:03:04;96582.19;;;16.24;27.43
47082;BME280;33066;49.296;14.470;2022-12-29T12:05:33;96575.37;;;16.06;27.64
47082;BME280;33066;49.296;14.470;2022-12-29T12:07:58;96573.88;;;16.00;27.69
47082;BME280;33066;49.296;14.470;2022-12-29T12:10:23;96576.43;;;16.01;27.55
47082;BME280;33066;49.296;14.470;2022-12-29T12:12:50;96576.92;;;15.77;27.69
47082;BME280;33066;49.296;14.470;2022-12-29T12:15:15;96574.23;;;15.99;27.45
47082;BME280;33066;49.296;14.470;2022-12-29T12:17:40;96564.76;;;15.96;27.30
47082;BME280;33066;49.296;14.470;2022-12-29T12:20:04;96561.17;;;15.94;27.81
47082;BME280;33066;49.296;14.470;2022-12-29T12:22:31;96562.41;;;15.82;27.85
47082;BME280;33066;49.296;14.470;2022-12-29T12:24:54;96560.93;;;16.23;27.67
47082;BME280;33066;49.296;14.470;2022-12-29T12:27:20;96562.53;;;15.98;27.91
47082;BME280;33066;49.296;14.470;2022-12-29T12:29:47;96557.39;;;15.86;27.93
47082;BME280;33066;49.296;14.470;2022-12-29T12:32:14;96552.15;;;15.62;28.00
47082;BME280;33066;49.296;14.470;2022-12-29T12:34:37;96550.14;;;15.83;28.06
47082;BME280;33066;49.296;14.470;2022-12-29T12:37:08;96546.10;;;15.63;27.81
47082;BME280;33066;49.296;14.470;2022-12-29T12:39:26;96548.43;;;16.05;28.10
47082;BME280;33066;49.296;14.470;2022-12-29T12:41:56;96548.37;;;15.47;28.00
47082;BME280;33066;49.296;14.470;2022-12-29T12:44:20;96545.80;;;15.84;28.09